Weather at Al Abraq International Airport

Public forecast

Using degrees Celsius for public forecast. Weather courtesy of forecast.io.

Closest aviation weather report (METAR) to Al Abraq International Airport

Report is more than 6 hours old.

Closest report is Chania International Airport, 197.2 nm (365.3 km) NNE.

2022/11/14 15:20 (retrieved 2 years ago)

LGSA 141520Z /////KT 9999 FEW020 16/13 Q1021

Aviation forecast (TAF) for Al Abraq International Airport

Forecast is more than 12 hours old.

2023/02/22 12:00 (retrieved 1 year ago)

TAF HLLQ 221100Z 2212/2312 30010KT 8000 SCT020 BECMG 2300/2302 VRB02KT PRPB40 TEMPO 2302/2306 3000 BR BECMG2310/2312 30010KT